createdAt,value
2022-09-22T00:01:24.949Z,6.70
2022-09-22T00:03:57.002Z,7.10
2022-09-22T00:06:26.649Z,7.93
2022-09-22T00:08:57.395Z,7.73
2022-09-22T00:11:28.962Z,4.83
2022-09-22T00:14:00.011Z,7.03
2022-09-22T00:16:31.721Z,5.30
2022-09-22T00:19:01.496Z,5.27
2022-09-22T00:21:31.034Z,6.73
2022-09-22T00:24:01.568Z,5.83
2022-09-22T00:26:31.237Z,3.93
2022-09-22T00:29:01.773Z,5.20
2022-09-22T00:31:31.015Z,5.70
2022-09-22T00:33:59.228Z,4.80
2022-09-22T00:36:29.435Z,5.50
2022-09-22T00:38:59.454Z,5.80
2022-09-22T00:41:29.391Z,7.73
2022-09-22T00:44:31.481Z,5.13
2022-09-22T00:47:05.848Z,8.50
2022-09-22T00:49:40.320Z,6.40
2022-09-22T00:52:11.100Z,4.30
2022-09-22T00:54:40.486Z,4.43
2022-09-22T00:57:13.022Z,5.87
2022-09-22T00:59:42.234Z,3.60
2022-09-22T01:02:11.255Z,6.50
2022-09-22T01:04:40.091Z,5.13
2022-09-22T01:07:11.092Z,6.70
2022-09-22T01:09:39.878Z,4.57
2022-09-22T01:12:08.565Z,4.23
2022-09-22T01:14:53.515Z,6.07
2022-09-22T01:17:30.233Z,4.57
2022-09-22T01:20:33.995Z,8.40
2022-09-22T01:23:26.466Z,4.17
2022-09-22T01:26:33.507Z,6.53
2022-09-22T01:29:24.643Z,8.23
2022-09-22T01:32:02.936Z,6.13
2022-09-22T01:34:34.846Z,3.47
2022-09-22T01:37:10.873Z,4.90
2022-09-22T01:39:43.023Z,5.47
2022-09-22T01:42:16.434Z,4.57
2022-09-22T01:44:49.988Z,5.37
2022-09-22T01:47:23.264Z,5.63
2022-09-22T01:49:54.332Z,7.33
2022-09-22T01:52:26.386Z,5.00
2022-09-22T01:54:59.347Z,4.53
2022-09-22T01:57:36.224Z,5.70
2022-09-22T02:00:44.795Z,5.50
2022-09-22T02:03:25.673Z,6.10
2022-09-22T02:06:15.625Z,6.27
2022-09-22T02:08:56.789Z,6.53
2022-09-22T02:11:25.648Z,4.70
2022-09-22T02:14:36.086Z,4.50
2022-09-22T02:17:10.601Z,4.37
2022-09-22T02:19:53.161Z,5.63
2022-09-22T02:22:22.808Z,5.17
2022-09-22T02:24:51.375Z,5.20
2022-09-22T02:27:28.098Z,4.33
2022-09-22T02:33:25.504Z,10.23
2022-09-22T02:43:29.475Z,4.57
2022-09-22T02:46:03.719Z,4.07
2022-09-22T02:48:35.706Z,5.37
2022-09-22T02:51:04.640Z,3.50
2022-09-22T02:53:35.836Z,4.50
2022-09-22T02:56:05.150Z,3.20
2022-09-22T02:58:33.466Z,6.77
2022-09-22T03:01:01.616Z,4.40
2022-09-22T03:03:30.202Z,5.43
2022-09-22T03:05:58.368Z,3.93
2022-09-22T03:08:26.618Z,4.90
2022-09-22T03:10:56.198Z,3.63
2022-09-22T03:13:24.503Z,3.50
2022-09-22T03:15:52.694Z,5.13
2022-09-22T03:18:21.054Z,5.83
2022-09-22T03:20:49.214Z,4.93
2022-09-22T03:23:17.377Z,3.47
2022-09-22T03:25:45.512Z,3.93
2022-09-22T03:28:15.000Z,3.67
2022-09-22T03:30:43.214Z,7.60
2022-09-22T03:33:11.294Z,4.63
2022-09-22T03:35:39.498Z,4.50
2022-09-22T03:38:07.651Z,4.30
2022-09-22T03:40:36.136Z,5.30
2022-09-22T03:43:04.621Z,3.97
2022-09-22T03:45:34.359Z,4.30
2022-09-22T03:48:03.035Z,5.80
2022-09-22T03:50:31.136Z,9.00
2022-09-22T03:52:59.432Z,3.73
2022-09-22T03:55:27.594Z,4.10
2022-09-22T03:57:55.903Z,5.30
2022-09-22T04:00:28.058Z,4.43
2022-09-22T04:02:58.089Z,4.70
2022-09-22T04:05:28.314Z,4.80
2022-09-22T04:07:59.368Z,16.93
2022-09-22T04:10:35.892Z,24.03
2022-09-22T04:13:07.273Z,25.57
2022-09-22T04:15:36.317Z,40.40
2022-09-22T04:18:06.287Z,21.07
2022-09-22T04:20:38.873Z,8.20
2022-09-22T04:23:07.223Z,6.17
2022-09-22T04:25:35.469Z,7.10
2022-09-22T04:28:05.686Z,4.67
2022-09-22T04:30:36.840Z,3.27
2022-09-22T04:33:06.686Z,3.83
2022-09-22T04:35:36.290Z,5.63
2022-09-22T04:38:05.201Z,3.50
2022-09-22T04:40:34.089Z,4.90
2022-09-22T04:43:04.463Z,2.83
2022-09-22T04:45:37.359Z,3.50
2022-09-22T04:48:09.155Z,4.50
2022-09-22T04:50:37.427Z,3.43
2022-09-22T04:53:08.118Z,20.57
2022-09-22T04:55:42.455Z,41.03
2022-09-22T04:58:14.061Z,24.10
2022-09-22T05:00:43.132Z,15.37
2022-09-22T05:03:18.610Z,8.00
2022-09-22T05:05:49.787Z,8.60
2022-09-22T05:08:21.282Z,5.70
2022-09-22T05:10:51.934Z,4.40
2022-09-22T05:13:20.274Z,5.00
2022-09-22T05:15:48.853Z,3.17
2022-09-22T05:18:22.811Z,5.83
2022-09-22T05:20:53.143Z,4.43
2022-09-22T05:23:21.854Z,8.07
2022-09-22T05:25:54.706Z,2.87
2022-09-22T05:28:27.075Z,4.30
2022-09-22T05:30:55.657Z,34.70
2022-09-22T05:33:25.385Z,124.67
2022-09-22T05:35:54.373Z,29.93
2022-09-22T05:38:27.290Z,17.07
2022-09-22T05:40:55.528Z,9.33
2022-09-22T05:43:23.663Z,9.83
2022-09-22T05:45:51.977Z,8.40
2022-09-22T05:48:20.199Z,5.40
2022-09-22T05:50:50.289Z,7.60
2022-09-22T05:53:18.409Z,4.73
2022-09-22T05:55:46.587Z,4.03
2022-09-22T05:58:14.710Z,4.23
2022-09-22T06:00:43.296Z,10.77
2022-09-22T06:03:11.567Z,51.03
2022-09-22T06:05:39.856Z,19.17
2022-09-22T06:08:09.744Z,11.57
2022-09-22T06:10:39.842Z,9.27
2022-09-22T06:13:10.335Z,6.37
2022-09-22T06:15:39.694Z,6.70
2022-09-22T06:18:14.666Z,6.57
2022-09-22T06:20:44.255Z,3.30
2022-09-22T06:23:15.361Z,6.33
2022-09-22T06:25:44.208Z,3.93
2022-09-22T06:28:14.587Z,3.40
2022-09-22T06:30:43.604Z,3.93
2022-09-22T06:33:12.919Z,3.87
2022-09-22T06:35:42.956Z,6.57
2022-09-22T06:38:15.403Z,3.73
2022-09-22T06:40:44.358Z,2.87
2022-09-22T06:43:22.903Z,5.00
2022-09-22T06:45:52.584Z,3.00
2022-09-22T06:48:23.782Z,5.27
2022-09-22T06:50:53.459Z,3.30
2022-09-22T06:53:26.589Z,2.50
2022-09-22T06:55:55.801Z,3.17
2022-09-22T06:58:25.294Z,4.00
2022-09-22T07:00:53.955Z,5.73
2022-09-22T07:03:26.204Z,6.13
2022-09-22T07:05:55.718Z,6.30
2022-09-22T07:08:26.050Z,3.30
2022-09-22T07:10:58.535Z,8.13
2022-09-22T07:13:28.136Z,4.40
2022-09-22T07:16:01.192Z,5.90
2022-09-22T07:18:29.706Z,5.33
2022-09-22T07:21:03.572Z,3.40
2022-09-22T07:23:35.712Z,3.83
2022-09-22T07:26:04.936Z,5.33
2022-09-22T07:28:34.333Z,3.27
2022-09-22T07:31:07.085Z,3.87
2022-09-22T07:33:35.921Z,5.00
2022-09-22T07:36:05.740Z,3.17
2022-09-22T07:38:36.607Z,3.00
2022-09-22T07:41:06.986Z,4.40
2022-09-22T07:43:35.591Z,4.27
2022-09-22T07:46:03.930Z,3.10
2022-09-22T07:48:41.680Z,7.93
2022-09-22T07:51:16.549Z,2.80
2022-09-22T07:53:48.253Z,3.63
2022-09-22T07:56:18.323Z,3.07
2022-09-22T07:58:50.454Z,3.30
2022-09-22T08:01:20.186Z,3.87
2022-09-22T08:03:48.551Z,2.77
2022-09-22T08:06:19.520Z,3.67
2022-09-22T08:08:52.415Z,4.47
2022-09-22T08:11:22.353Z,4.60
2022-09-22T08:13:53.337Z,2.77
2022-09-22T08:16:22.983Z,2.63
2022-09-22T08:18:56.034Z,4.57
2022-09-22T08:21:24.205Z,8.40
2022-09-22T08:23:53.829Z,2.90
2022-09-22T08:26:22.885Z,4.30
2022-09-22T08:28:53.611Z,4.03
2022-09-22T08:31:23.129Z,3.97
2022-09-22T08:33:53.042Z,3.20
2022-09-22T08:36:21.729Z,3.20
2022-09-22T08:38:49.978Z,2.80
2022-09-22T08:41:27.953Z,3.87
2022-09-22T08:44:00.589Z,3.43
2022-09-22T08:46:32.126Z,2.80
2022-09-22T08:49:25.094Z,2.90
2022-09-22T08:51:58.034Z,2.83
2022-09-22T08:54:29.437Z,3.10
2022-09-22T08:57:12.708Z,3.97
2022-09-22T08:59:47.001Z,3.70
2022-09-22T09:02:35.062Z,3.73
2022-09-22T09:05:31.855Z,3.93
2022-09-22T09:08:07.667Z,3.30
2022-09-22T09:10:47.667Z,2.90
2022-09-22T09:13:34.663Z,3.60
2022-09-22T09:16:15.110Z,2.70
2022-09-22T09:18:51.623Z,2.53
2022-09-22T09:21:21.149Z,2.60
2022-09-22T09:26:44.680Z,4.27
2022-09-22T09:29:22.048Z,2.30
2022-09-22T09:31:53.570Z,3.23
2022-09-22T09:34:26.860Z,2.33
2022-09-22T09:37:03.069Z,22.70
2022-09-22T09:39:34.687Z,32.70
2022-09-22T09:42:09.607Z,31.60
2022-09-22T09:44:41.107Z,21.33
2022-09-22T09:47:20.346Z,16.87
2022-09-22T09:49:52.733Z,16.17
2022-09-22T09:52:22.169Z,10.00
2022-09-22T09:54:50.766Z,10.20
2022-09-22T09:57:20.500Z,9.13
2022-09-22T10:00:27.523Z,8.13
2022-09-22T10:03:13.146Z,5.87
2022-09-22T10:05:41.659Z,5.63
2022-09-22T10:08:20.132Z,5.37
2022-09-22T10:10:49.748Z,8.23
2022-09-22T10:13:29.359Z,34.83
2022-09-22T10:16:24.351Z,32.67
2022-09-22T10:19:21.545Z,23.70
2022-09-22T10:21:50.185Z,17.83
2022-09-22T10:24:31.671Z,17.30
2022-09-22T10:27:03.761Z,14.50
2022-09-22T10:29:35.561Z,10.97
2022-09-22T10:32:12.897Z,8.87
2022-09-22T10:37:25.819Z,7.20
2022-09-22T10:39:55.709Z,6.00
2022-09-22T10:42:33.443Z,4.30
2022-09-22T10:45:04.905Z,4.03
2022-09-22T10:47:47.421Z,3.40
2022-09-22T10:50:56.528Z,3.27
2022-09-22T10:53:39.844Z,2.67
2022-09-22T10:56:17.433Z,2.80
2022-09-22T10:59:11.480Z,2.80
2022-09-22T11:01:57.910Z,1.97
2022-09-22T11:04:54.297Z,2.10
2022-09-22T11:08:00.034Z,1.63
2022-09-22T11:10:54.558Z,1.20
2022-09-22T11:13:35.952Z,1.40
2022-09-22T11:16:28.805Z,1.10
2022-09-22T11:19:24.720Z,1.33
2022-09-22T11:22:08.314Z,1.30
2022-09-22T11:24:55.209Z,1.60
2022-09-22T11:27:32.057Z,1.10
2022-09-22T11:30:12.798Z,5.30
2022-09-22T11:33:10.173Z,24.83
2022-09-22T11:35:51.355Z,16.73
2022-09-22T11:38:37.833Z,16.33
2022-09-22T11:41:21.477Z,9.10
2022-09-22T11:44:14.827Z,7.90
2022-09-22T11:47:01.039Z,6.80
2022-09-22T11:49:47.064Z,4.77
2022-09-22T11:52:26.315Z,3.60
2022-09-22T11:55:13.085Z,3.07
2022-09-22T11:57:45.000Z,2.50
2022-09-22T12:00:17.335Z,2.17
2022-09-22T12:02:50.756Z,2.83
2022-09-22T12:05:26.928Z,1.43
2022-09-22T12:07:59.646Z,1.57
2022-09-22T12:10:34.166Z,1.10
2022-09-22T12:13:05.211Z,1.83
2022-09-22T12:15:38.816Z,1.60
2022-09-22T12:18:14.164Z,1.53
2022-09-22T12:20:55.412Z,1.30
2022-09-22T12:23:45.166Z,1.10
2022-09-22T12:26:25.607Z,3.00
2022-09-22T12:28:55.898Z,2.50
2022-09-22T12:31:35.071Z,1.70
2022-09-22T12:34:06.404Z,3.57
2022-09-22T12:36:38.672Z,1.50
2022-09-22T12:39:17.109Z,1.57
2022-09-22T12:41:48.165Z,1.50
2022-09-22T12:44:25.198Z,1.30
2022-09-22T12:46:56.988Z,1.30
2022-09-22T12:49:25.528Z,3.90
2022-09-22T12:51:53.919Z,2.20
2022-09-22T12:54:51.382Z,2.67
2022-09-22T12:57:45.281Z,2.73
2022-09-22T13:00:27.852Z,1.87
2022-09-22T13:02:59.018Z,1.73
2022-09-22T13:05:35.881Z,1.53
2022-09-22T13:08:04.891Z,1.40
2022-09-22T13:10:43.600Z,1.43
2022-09-22T13:13:20.854Z,1.60
2022-09-22T13:15:59.487Z,1.23
2022-09-22T13:18:33.322Z,1.60
2022-09-22T13:21:03.030Z,2.43
2022-09-22T13:23:31.566Z,2.93
2022-09-22T13:26:07.808Z,1.70
2022-09-22T13:28:36.115Z,1.83
2022-09-22T13:31:12.976Z,1.43
2022-09-22T13:33:41.496Z,1.77
2022-09-22T13:36:13.403Z,1.30
2022-09-22T13:38:43.746Z,1.40
2022-09-22T13:41:13.694Z,1.50
2022-09-22T13:43:45.981Z,1.83
2022-09-22T13:46:23.329Z,1.63
2022-09-22T13:48:53.699Z,1.40
2022-09-22T13:51:22.447Z,1.53
2022-09-22T13:53:52.744Z,1.70
2022-09-22T13:56:23.477Z,1.33
2022-09-22T13:58:54.420Z,3.10
2022-09-22T14:01:25.913Z,2.60
2022-09-22T14:03:55.506Z,12.87
2022-09-22T14:06:26.208Z,21.23
2022-09-22T14:08:55.552Z,15.70
2022-09-22T14:11:26.733Z,20.63
2022-09-22T14:14:00.580Z,39.43
2022-09-22T14:16:35.211Z,27.23
2022-09-22T14:19:07.196Z,16.20
2022-09-22T14:21:44.207Z,12.67
2022-09-22T14:24:14.602Z,10.83
2022-09-22T14:26:47.550Z,8.67
2022-09-22T14:29:20.371Z,5.70
2022-09-22T14:31:53.664Z,6.00
2022-09-22T14:34:26.819Z,5.03
2022-09-22T14:36:56.436Z,5.00
2022-09-22T14:39:31.923Z,5.27
2022-09-22T14:42:08.995Z,3.13
2022-09-22T14:44:44.458Z,3.33
2022-09-22T14:47:26.080Z,4.00
2022-09-22T14:50:10.642Z,2.73
2022-09-22T14:52:43.293Z,3.37
2022-09-22T14:55:18.052Z,3.70
2022-09-22T14:57:49.258Z,2.70
2022-09-22T15:00:32.710Z,2.07
2022-09-22T15:03:05.189Z,4.20
2022-09-22T15:05:34.257Z,1.90
2022-09-22T15:08:05.632Z,2.90
2022-09-22T15:10:35.163Z,5.70
2022-09-22T15:13:28.100Z,2.40
2022-09-22T15:15:56.706Z,1.97
2022-09-22T15:18:30.394Z,2.23
2022-09-22T15:21:03.991Z,1.80
2022-09-22T15:23:39.460Z,1.43
2022-09-22T15:26:08.099Z,1.93
2022-09-22T15:28:38.147Z,2.70
2022-09-22T15:31:07.595Z,1.80
2022-09-22T15:33:37.366Z,1.53
2022-09-22T15:36:12.743Z,2.47
2022-09-22T15:38:44.047Z,1.90
2022-09-22T15:41:15.770Z,1.80
2022-09-22T15:43:44.607Z,1.63
2022-09-22T15:46:26.596Z,3.60
2022-09-22T15:48:59.893Z,31.70
2022-09-22T15:51:30.428Z,26.20
2022-09-22T15:53:58.695Z,21.27
2022-09-22T15:56:30.123Z,13.10
2022-09-22T15:59:01.293Z,9.87
2022-09-22T16:01:30.016Z,8.00
2022-09-22T16:04:00.985Z,6.20
2022-09-22T16:06:29.660Z,7.80
2022-09-22T16:08:58.541Z,4.00
2022-09-22T16:11:29.523Z,4.30
2022-09-22T16:13:58.935Z,3.07
2022-09-22T16:16:28.222Z,2.90
2022-09-22T16:18:56.706Z,2.50
2022-09-22T16:21:29.303Z,2.53
2022-09-22T16:24:03.555Z,2.10
2022-09-22T16:26:33.433Z,1.33
2022-09-22T16:29:02.609Z,1.83
2022-09-22T16:31:30.915Z,1.40
2022-09-22T16:34:01.559Z,1.50
2022-09-22T16:36:34.135Z,1.30
2022-09-22T16:39:02.850Z,1.67
2022-09-22T16:41:32.484Z,1.50
2022-09-22T16:44:01.520Z,2.90
2022-09-22T16:46:31.599Z,1.20
2022-09-22T16:49:04.368Z,1.50
2022-09-22T16:51:38.435Z,1.20
2022-09-22T16:54:10.470Z,1.20
2022-09-22T16:56:39.369Z,1.23
2022-09-22T16:59:08.520Z,1.40
2022-09-22T17:01:38.038Z,1.67
2022-09-22T17:04:07.764Z,1.70
2022-09-22T17:06:38.740Z,1.80
2022-09-22T17:09:08.078Z,1.83
2022-09-22T17:11:39.193Z,2.07
2022-09-22T17:14:12.393Z,1.70
2022-09-22T17:16:42.375Z,1.70
2022-09-22T17:19:12.227Z,1.67
2022-09-22T17:21:42.036Z,1.60
2022-09-22T17:24:10.925Z,1.63
2022-09-22T17:26:41.265Z,1.40
2022-09-22T17:29:10.812Z,2.07
2022-09-22T17:31:41.197Z,4.00
2022-09-22T17:34:10.506Z,3.67
2022-09-22T17:36:41.090Z,2.80
2022-09-22T17:39:10.671Z,2.47
2022-09-22T17:41:45.289Z,5.47
2022-09-22T17:44:14.750Z,2.57
2022-09-22T17:47:02.925Z,4.30
2022-09-22T17:49:48.495Z,7.37
2022-09-22T17:52:35.905Z,3.03
2022-09-22T17:55:11.246Z,3.80
2022-09-22T17:57:40.933Z,3.30
2022-09-22T18:00:12.242Z,6.57
2022-09-22T18:02:40.926Z,2.70
2022-09-22T18:05:11.410Z,2.30
2022-09-22T18:07:41.785Z,1.90
2022-09-22T18:10:12.149Z,2.93
2022-09-22T18:12:41.251Z,2.10
2022-09-22T18:15:13.221Z,2.40
2022-09-22T18:17:43.361Z,6.50
2022-09-22T18:20:14.245Z,3.30
2022-09-22T18:22:47.519Z,3.30
2022-09-22T18:25:16.666Z,2.80
2022-09-22T18:27:45.046Z,2.07
2022-09-22T18:30:15.982Z,2.07
2022-09-22T18:32:44.326Z,1.90
2022-09-22T18:35:12.983Z,4.07
2022-09-22T18:37:43.127Z,1.97
2022-09-22T18:40:13.012Z,2.13
2022-09-22T18:42:41.506Z,3.90
2022-09-22T18:45:12.522Z,2.20
2022-09-22T18:47:43.746Z,1.23
2022-09-22T18:50:13.349Z,1.67
2022-09-22T18:52:45.881Z,2.60
2022-09-22T18:55:17.326Z,2.53
2022-09-22T18:57:47.406Z,2.57
2022-09-22T19:00:16.904Z,4.50
2022-09-22T19:02:46.256Z,2.70
2022-09-22T19:05:14.564Z,2.40
2022-09-22T19:07:47.611Z,2.23
2022-09-22T19:10:21.819Z,2.17
2022-09-22T19:12:50.785Z,4.13
2022-09-22T19:15:23.701Z,3.63
2022-09-22T19:17:52.525Z,2.30
2022-09-22T19:20:26.110Z,2.57
2022-09-22T19:23:01.325Z,3.23
2022-09-22T19:25:31.783Z,2.20
2022-09-22T19:28:04.230Z,2.70
2022-09-22T19:30:34.475Z,2.60
2022-09-22T19:33:08.227Z,3.30
2022-09-22T19:35:39.258Z,2.50
2022-09-22T19:38:09.756Z,2.47
2022-09-22T19:40:40.441Z,1.93
2022-09-22T19:43:08.997Z,4.63
2022-09-22T19:45:40.009Z,2.30
2022-09-22T19:48:09.903Z,2.90
2022-09-22T19:50:38.760Z,3.00
2022-09-22T19:53:13.739Z,4.47
2022-09-22T19:55:43.802Z,4.17
2022-09-22T19:58:13.724Z,3.63
2022-09-22T20:00:46.816Z,3.13
2022-09-22T20:03:15.670Z,3.97
2022-09-22T20:05:48.792Z,2.47
2022-09-22T20:08:20.523Z,5.57
2022-09-22T20:11:05.963Z,3.43
2022-09-22T20:13:58.200Z,2.27
2022-09-22T20:16:28.239Z,2.30
2022-09-22T20:18:57.940Z,5.43
2022-09-22T20:21:27.892Z,3.20
2022-09-22T20:23:57.579Z,2.97
2022-09-22T20:26:27.759Z,2.23
2022-09-22T20:28:57.186Z,2.20
2022-09-22T20:31:26.827Z,3.47
2022-09-22T20:33:56.781Z,7.63
2022-09-22T20:36:26.523Z,3.30
2022-09-22T20:38:54.657Z,2.40
2022-09-22T20:41:24.995Z,3.20
2022-09-22T20:43:53.354Z,4.03
2022-09-22T20:46:21.939Z,4.33
2022-09-22T20:48:55.227Z,5.43
2022-09-22T20:51:24.035Z,3.20
2022-09-22T20:53:52.225Z,3.27
2022-09-22T20:56:20.373Z,2.90
2022-09-22T20:58:49.908Z,3.60
2022-09-22T21:01:18.989Z,3.00
2022-09-22T21:03:47.799Z,2.63
2022-09-22T21:06:17.928Z,4.13
2022-09-22T21:09:03.787Z,3.50
2022-09-22T21:11:32.215Z,3.30
2022-09-22T21:14:05.533Z,3.17
2022-09-22T21:16:35.089Z,5.77
2022-09-22T21:19:04.112Z,3.37
2022-09-22T21:21:33.743Z,4.47
2022-09-22T21:24:02.298Z,5.53
2022-09-22T21:26:31.440Z,5.90
2022-09-22T21:29:01.069Z,3.37
2022-09-22T21:31:29.784Z,3.30
2022-09-22T21:33:58.807Z,6.47
2022-09-22T21:36:27.105Z,5.57
2022-09-22T21:38:59.575Z,3.83
2022-09-22T21:41:28.903Z,6.63
2022-09-22T21:43:57.307Z,6.53
2022-09-22T21:46:29.542Z,10.50
2022-09-22T21:49:01.567Z,9.87
2022-09-22T21:51:34.294Z,11.77
2022-09-22T21:54:03.555Z,14.63
2022-09-22T21:56:33.656Z,14.60
2022-09-22T21:59:03.243Z,16.93
2022-09-22T22:01:34.799Z,17.70
2022-09-22T22:04:04.925Z,14.87
2022-09-22T22:06:37.485Z,11.47
2022-09-22T22:09:08.040Z,13.57
2022-09-22T22:11:38.067Z,11.63
2022-09-22T22:14:08.965Z,13.60
2022-09-22T22:16:40.996Z,14.03
2022-09-22T22:19:11.500Z,12.03
2022-09-22T22:21:41.089Z,14.07
2022-09-22T22:24:34.260Z,11.17
2022-09-22T22:27:06.201Z,13.60
2022-09-22T22:29:36.280Z,12.10
2022-09-22T22:32:07.713Z,11.33
2022-09-22T22:34:35.906Z,7.37
2022-09-22T22:37:04.702Z,4.63
2022-09-22T22:39:33.440Z,4.70
2022-09-22T22:42:01.579Z,3.20
2022-09-22T22:44:29.715Z,4.40
2022-09-22T22:46:58.442Z,2.70
2022-09-22T22:49:28.217Z,2.60
2022-09-22T22:51:56.320Z,3.87
2022-09-22T22:54:24.480Z,2.87
2022-09-22T22:56:52.588Z,3.80
2022-09-22T22:59:20.866Z,4.23
2022-09-22T23:01:49.060Z,2.90
2022-09-22T23:04:17.654Z,3.20
2022-09-22T23:06:48.447Z,4.23
2022-09-22T23:09:17.867Z,4.10
2022-09-22T23:11:47.566Z,3.97
2022-09-22T23:14:17.025Z,2.93
2022-09-22T23:16:49.369Z,2.90
2022-09-22T23:19:19.113Z,2.60
2022-09-22T23:21:48.720Z,3.33
2022-09-22T23:24:19.029Z,4.50
2022-09-22T23:26:47.768Z,2.53
2022-09-22T23:29:16.039Z,4.03
2022-09-22T23:31:44.203Z,2.40
2022-09-22T23:34:12.311Z,3.23
2022-09-22T23:36:40.599Z,4.53
2022-09-22T23:39:13.173Z,2.90
2022-09-22T23:41:42.884Z,2.83
2022-09-22T23:44:12.337Z,3.07
2022-09-22T23:46:40.571Z,4.37
2022-09-22T23:49:08.807Z,3.30
2022-09-22T23:51:37.039Z,3.23
2022-09-22T23:54:05.593Z,6.43
2022-09-22T23:56:35.180Z,2.50
2022-09-22T23:59:03.384Z,2.37
